createdAt,value
2023-05-25T00:01:44.107Z,25.37
2023-05-25T00:03:44.022Z,25.40
2023-05-25T00:05:44.027Z,25.29
2023-05-25T00:07:43.871Z,25.35
2023-05-25T00:09:43.922Z,25.39
2023-05-25T00:11:43.852Z,25.26
2023-05-25T00:13:43.890Z,25.52
2023-05-25T00:15:44.184Z,25.31
2023-05-25T00:17:43.950Z,25.40
2023-05-25T00:19:43.866Z,25.26
2023-05-25T00:21:43.880Z,25.40
2023-05-25T00:23:43.928Z,25.27
2023-05-25T00:25:44.086Z,25.35
2023-05-25T00:27:43.803Z,25.33
2023-05-25T00:29:43.873Z,25.29
2023-05-25T00:31:43.915Z,25.32
2023-05-25T00:33:43.918Z,25.31
2023-05-25T00:35:44.017Z,25.37
2023-05-25T00:37:43.928Z,25.38
2023-05-25T00:39:43.918Z,25.36
2023-05-25T00:41:43.911Z,25.34
2023-05-25T00:43:43.961Z,25.29
2023-05-25T00:45:44.169Z,25.26
2023-05-25T00:47:43.951Z,25.40
2023-05-25T00:49:43.966Z,25.30
2023-05-25T00:51:43.937Z,25.37
2023-05-25T00:53:43.813Z,25.35
2023-05-25T00:55:44.044Z,25.29
2023-05-25T00:57:43.915Z,25.29
2023-05-25T00:59:43.923Z,25.29
2023-05-25T01:01:43.975Z,25.35
2023-05-25T01:03:44.043Z,25.29
2023-05-25T01:05:44.115Z,25.40
2023-05-25T01:07:43.928Z,25.37
2023-05-25T01:09:43.831Z,25.37
2023-05-25T01:11:44.050Z,25.31
2023-05-25T01:13:43.917Z,25.37
2023-05-25T01:15:44.128Z,25.38
2023-05-25T01:17:44.064Z,25.32
2023-05-25T01:19:44.812Z,25.38
2023-05-25T01:21:43.982Z,25.39
2023-05-25T01:23:44.016Z,25.37
2023-05-25T01:25:44.074Z,25.31
2023-05-25T01:27:43.980Z,25.28
2023-05-25T01:29:43.937Z,25.29
2023-05-25T01:31:43.877Z,25.39
2023-05-25T01:33:44.023Z,25.29
2023-05-25T01:35:44.205Z,25.29
2023-05-25T01:37:43.986Z,25.38
2023-05-25T01:39:43.942Z,25.33
2023-05-25T01:41:43.844Z,25.31
2023-05-25T01:43:43.943Z,25.29
2023-05-25T01:45:44.121Z,25.32
2023-05-25T01:47:43.994Z,25.33
2023-05-25T01:49:44.011Z,25.37
2023-05-25T01:51:44.000Z,25.39
2023-05-25T01:53:43.965Z,25.40
2023-05-25T01:55:44.178Z,25.29
2023-05-25T01:57:43.925Z,25.37
2023-05-25T01:59:44.034Z,25.30
2023-05-25T02:01:44.055Z,24.20
2023-05-25T02:03:44.057Z,23.96
2023-05-25T02:05:44.249Z,23.96
2023-05-25T02:07:43.840Z,23.98
2023-05-25T02:09:43.918Z,23.84
2023-05-25T02:11:44.037Z,23.87
2023-05-25T02:13:44.020Z,23.87
2023-05-25T02:15:44.233Z,23.84
2023-05-25T02:17:44.059Z,23.81
2023-05-25T02:19:43.970Z,23.81
2023-05-25T02:21:43.926Z,23.80
2023-05-25T02:23:44.043Z,23.82
2023-05-25T02:25:44.204Z,23.80
2023-05-25T02:27:43.984Z,23.84
2023-05-25T02:29:44.039Z,23.20
2023-05-25T02:31:44.122Z,23.13
2023-05-25T02:33:43.946Z,22.95
2023-05-25T02:35:44.209Z,22.94
2023-05-25T02:37:43.934Z,22.78
2023-05-25T02:39:43.966Z,23.13
2023-05-25T02:41:44.086Z,23.18
2023-05-25T02:43:44.089Z,23.12
2023-05-25T02:45:44.241Z,23.38
2023-05-25T02:47:45.140Z,23.43
2023-05-25T02:49:44.076Z,23.47
2023-05-25T02:51:44.048Z,23.42
2023-05-25T02:53:44.123Z,23.42
2023-05-25T02:55:44.193Z,23.53
2023-05-25T02:57:43.946Z,23.41
2023-05-25T02:59:44.038Z,23.47
2023-05-25T03:01:44.066Z,23.41
2023-05-25T03:03:44.114Z,23.42
2023-05-25T03:05:44.214Z,23.48
2023-05-25T03:07:44.043Z,23.37
2023-05-25T03:09:44.081Z,23.42
2023-05-25T03:11:44.107Z,22.95
2023-05-25T03:13:44.052Z,22.80
2023-05-25T03:15:44.190Z,22.88
2023-05-25T03:17:44.063Z,22.82
2023-05-25T03:19:44.091Z,22.85
2023-05-25T03:21:44.087Z,23.27
2023-05-25T03:23:43.975Z,23.29
2023-05-25T03:25:44.292Z,23.27
2023-05-25T03:27:44.099Z,23.05
2023-05-25T03:29:44.133Z,23.00
2023-05-25T03:31:44.127Z,22.96
2023-05-25T03:33:44.106Z,22.88
2023-05-25T03:35:44.259Z,22.99
2023-05-25T03:37:44.119Z,22.96
2023-05-25T03:39:44.120Z,23.17
2023-05-25T03:41:44.116Z,23.25
2023-05-25T03:43:44.127Z,23.25
2023-05-25T03:45:44.281Z,23.16
2023-05-25T03:47:44.014Z,23.17
2023-05-25T03:49:44.159Z,23.11
2023-05-25T03:51:44.106Z,22.69
2023-05-25T03:53:44.088Z,22.68
2023-05-25T03:55:44.301Z,22.72
2023-05-25T03:57:44.119Z,22.69
2023-05-25T03:59:44.141Z,22.76
2023-05-25T04:01:44.121Z,22.79
2023-05-25T04:03:44.407Z,22.90
2023-05-25T04:05:44.300Z,22.95
2023-05-25T04:07:44.096Z,22.96
2023-05-25T04:09:44.048Z,22.90
2023-05-25T04:11:44.181Z,22.91
2023-05-25T04:13:44.140Z,22.83
2023-05-25T04:15:44.344Z,22.96
2023-05-25T04:17:44.232Z,22.82
2023-05-25T04:19:44.132Z,22.74
2023-05-25T04:21:44.160Z,22.69
2023-05-25T04:23:44.154Z,22.73
2023-05-25T04:25:45.439Z,22.58
2023-05-25T04:27:44.074Z,22.68
2023-05-25T04:29:44.057Z,22.68
2023-05-25T04:31:44.239Z,22.74
2023-05-25T04:33:44.200Z,22.68
2023-05-25T04:35:44.389Z,22.68
2023-05-25T04:37:44.084Z,22.65
2023-05-25T04:39:44.152Z,22.65
2023-05-25T04:41:44.117Z,22.63
2023-05-25T04:44:03.551Z,22.93
2023-05-25T04:45:44.353Z,22.96
2023-05-25T04:47:44.245Z,22.94
2023-05-25T04:49:44.062Z,22.87
2023-05-25T04:51:44.188Z,22.98
2023-05-25T04:53:44.092Z,22.96
2023-05-25T04:55:44.348Z,23.03
2023-05-25T04:57:44.184Z,23.10
2023-05-25T04:59:44.178Z,22.95
2023-05-25T05:01:44.238Z,23.02
2023-05-25T05:03:44.200Z,22.99
2023-05-25T05:05:44.380Z,23.01
2023-05-25T05:07:44.293Z,23.01
2023-05-25T05:09:44.204Z,23.02
2023-05-25T05:11:44.188Z,23.07
2023-05-25T05:13:44.214Z,22.99
2023-05-25T05:15:44.389Z,22.42
2023-05-25T05:17:44.271Z,22.44
2023-05-25T05:19:44.228Z,22.46
2023-05-25T05:21:44.123Z,22.41
2023-05-25T05:23:44.279Z,22.45
2023-05-25T05:25:44.519Z,22.72
2023-05-25T05:27:44.093Z,22.99
2023-05-25T05:29:44.287Z,23.12
2023-05-25T05:31:44.298Z,23.04
2023-05-25T05:33:44.277Z,23.06
2023-05-25T05:35:44.470Z,23.12
2023-05-25T05:37:44.272Z,23.25
2023-05-25T05:39:44.150Z,23.13
2023-05-25T05:41:44.247Z,23.18
2023-05-25T05:43:44.120Z,23.15
2023-05-25T05:45:44.425Z,23.14
2023-05-25T05:47:44.295Z,23.15
2023-05-25T05:49:44.263Z,23.24
2023-05-25T05:51:44.195Z,23.23
2023-05-25T05:53:44.184Z,23.20
2023-05-25T05:55:44.488Z,22.72
2023-05-25T05:57:44.235Z,22.51
2023-05-25T05:59:44.246Z,22.52
2023-05-25T06:01:44.242Z,22.48
2023-05-25T06:03:44.305Z,22.55
2023-05-25T06:05:48.117Z,22.49
2023-05-25T06:07:44.284Z,23.04
2023-05-25T06:09:44.301Z,22.71
2023-05-25T06:11:44.294Z,22.68
2023-05-25T06:13:45.501Z,22.70
2023-05-25T06:15:44.603Z,22.72
2023-05-25T06:17:44.279Z,22.73
2023-05-25T06:19:44.215Z,22.95
2023-05-25T06:21:44.333Z,23.11
2023-05-25T06:23:44.307Z,23.31
2023-05-25T06:25:44.510Z,23.22
2023-05-25T06:27:44.275Z,23.54
2023-05-25T06:29:44.352Z,23.55
2023-05-25T06:31:44.336Z,23.52
2023-05-25T06:33:44.318Z,23.66
2023-05-25T06:35:44.386Z,23.81
2023-05-25T06:37:44.309Z,23.17
2023-05-25T06:39:44.341Z,22.68
2023-05-25T06:41:44.337Z,22.60
2023-05-25T06:43:44.244Z,22.62
2023-05-25T06:45:44.605Z,22.56
2023-05-25T06:47:44.319Z,23.08
2023-05-25T06:49:44.283Z,23.50
2023-05-25T06:51:44.352Z,23.81
2023-05-25T06:53:44.337Z,23.97
2023-05-25T06:55:44.466Z,24.10
2023-05-25T06:57:44.354Z,24.16
2023-05-25T06:59:44.341Z,24.23
2023-05-25T07:01:44.270Z,24.28
2023-05-25T07:03:44.286Z,24.09
2023-05-25T07:05:44.507Z,23.96
2023-05-25T07:07:44.383Z,23.96
2023-05-25T07:09:44.291Z,24.10
2023-05-25T07:11:44.223Z,24.10
2023-05-25T07:13:44.369Z,24.36
2023-05-25T07:15:44.387Z,24.38
2023-05-25T07:17:44.380Z,24.51
2023-05-25T07:19:44.334Z,23.81
2023-05-25T07:21:44.415Z,23.70
2023-05-25T07:23:44.350Z,23.70
2023-05-25T07:25:44.543Z,23.65
2023-05-25T07:27:44.320Z,23.66
2023-05-25T07:29:44.400Z,24.35
2023-05-25T07:31:44.371Z,24.57
2023-05-25T07:33:44.355Z,24.65
2023-05-25T07:35:44.504Z,24.75
2023-05-25T07:37:44.386Z,24.71
2023-05-25T07:39:44.390Z,24.75
2023-05-25T07:41:44.354Z,24.82
2023-05-25T07:43:44.314Z,24.82
2023-05-25T07:45:44.458Z,24.82
2023-05-25T07:47:44.477Z,24.86
2023-05-25T07:49:44.424Z,24.96
2023-05-25T07:51:44.377Z,24.89
2023-05-25T07:53:44.379Z,24.79
2023-05-25T07:55:44.712Z,24.72
2023-05-25T07:57:44.392Z,24.67
2023-05-25T07:59:44.311Z,24.52
2023-05-25T08:01:44.460Z,24.14
2023-05-25T08:03:49.858Z,24.04
2023-05-25T08:05:44.638Z,24.11
2023-05-25T08:07:44.349Z,24.38
2023-05-25T08:09:44.339Z,24.55
2023-05-25T08:11:44.341Z,25.31
2023-05-25T08:13:44.333Z,25.32
2023-05-25T08:15:44.507Z,25.08
2023-05-25T08:17:44.708Z,25.12
2023-05-25T08:19:44.397Z,25.52
2023-05-25T08:21:44.440Z,25.55
2023-05-25T08:23:44.428Z,25.73
2023-05-25T08:25:44.659Z,25.90
2023-05-25T08:27:44.352Z,25.99
2023-05-25T08:29:44.333Z,26.02
2023-05-25T08:31:44.421Z,26.22
2023-05-25T08:33:44.389Z,25.91
2023-05-25T08:35:44.662Z,25.89
2023-05-25T08:37:44.420Z,25.93
2023-05-25T08:39:44.411Z,24.82
2023-05-25T08:41:44.514Z,25.14
2023-05-25T08:43:44.401Z,25.33
2023-05-25T08:45:47.021Z,25.35
2023-05-25T08:47:44.487Z,25.65
2023-05-25T08:49:44.460Z,25.21
2023-05-25T08:51:44.484Z,25.65
2023-05-25T08:53:44.371Z,25.89
2023-05-25T08:55:44.634Z,26.35
2023-05-25T08:57:44.404Z,26.14
2023-05-25T08:59:44.443Z,25.35
2023-05-25T09:01:44.459Z,24.76
2023-05-25T09:03:44.590Z,24.75
2023-05-25T09:05:44.707Z,24.74
2023-05-25T09:07:44.499Z,24.75
2023-05-25T09:09:44.454Z,26.53
2023-05-25T09:11:45.727Z,24.94
2023-05-25T09:13:44.450Z,24.84
2023-05-25T09:15:44.640Z,24.71
2023-05-25T09:17:44.494Z,24.68
2023-05-25T09:19:44.451Z,24.71
2023-05-25T09:21:44.503Z,24.76
2023-05-25T09:23:44.476Z,26.16
2023-05-25T09:25:44.389Z,25.91
2023-05-25T09:27:44.460Z,26.10
2023-05-25T09:29:44.450Z,25.92
2023-05-25T09:31:44.503Z,26.08
2023-05-25T09:33:44.498Z,25.14
2023-05-25T09:35:44.464Z,24.64
2023-05-25T09:37:44.696Z,24.76
2023-05-25T09:39:44.729Z,24.78
2023-05-25T09:41:44.499Z,24.82
2023-05-25T09:43:49.164Z,26.55
2023-05-25T09:45:44.421Z,24.95
2023-05-25T09:47:44.537Z,24.71
2023-05-25T09:49:44.574Z,26.65
2023-05-25T09:51:44.402Z,24.83
2023-05-25T09:53:44.483Z,26.51
2023-05-25T09:57:44.488Z,24.80
2023-05-25T09:59:44.524Z,26.53
2023-05-25T10:01:44.466Z,24.81
2023-05-25T10:03:55.340Z,26.16
2023-05-25T10:05:44.439Z,25.06
2023-05-25T10:07:44.401Z,26.48
2023-05-25T10:09:44.557Z,26.55
2023-05-25T10:11:44.535Z,25.85
2023-05-25T10:13:44.553Z,26.31
2023-05-25T10:15:44.628Z,25.18
2023-05-25T10:17:44.640Z,24.68
2023-05-25T10:19:44.536Z,24.69
2023-05-25T10:21:44.530Z,24.75
2023-05-25T10:23:44.593Z,24.72
2023-05-25T10:25:44.587Z,24.94
2023-05-25T10:27:44.636Z,24.76
2023-05-25T10:29:44.516Z,26.53
2023-05-25T10:31:44.603Z,24.97
2023-05-25T10:33:47.527Z,24.72
2023-05-25T10:36:01.608Z,24.66
2023-05-25T10:37:44.407Z,26.37
2023-05-25T10:39:44.513Z,26.35
2023-05-25T10:41:44.567Z,24.66
2023-05-25T10:43:44.659Z,26.28
2023-05-25T10:45:44.691Z,26.42
2023-05-25T10:47:44.566Z,25.42
2023-05-25T10:49:44.617Z,26.48
2023-05-25T10:51:44.523Z,24.75
2023-05-25T10:53:44.578Z,26.43
2023-05-25T10:55:44.909Z,26.22
2023-05-25T10:57:44.480Z,26.55
2023-05-25T10:59:44.493Z,24.71
2023-05-25T11:01:44.583Z,24.81
2023-05-25T11:03:44.950Z,24.83
2023-05-25T11:05:45.101Z,24.82
2023-05-25T11:07:44.630Z,24.69
2023-05-25T11:09:44.612Z,26.37
2023-05-25T11:11:44.482Z,24.86
2023-05-25T11:13:44.596Z,24.79
2023-05-25T11:15:44.804Z,24.66
2023-05-25T11:17:44.559Z,24.68
2023-05-25T11:19:44.665Z,24.59
2023-05-25T11:21:44.706Z,26.30
2023-05-25T11:23:44.597Z,24.68
2023-05-25T11:25:45.023Z,26.56
2023-05-25T11:27:44.584Z,24.52
2023-05-25T11:29:45.276Z,26.43
2023-05-25T11:31:44.773Z,26.37
2023-05-25T11:33:44.615Z,26.55
2023-05-25T11:35:44.982Z,26.35
2023-05-25T11:37:44.668Z,24.93
2023-05-25T11:39:44.568Z,26.73
2023-05-25T11:41:44.605Z,24.86
2023-05-25T11:43:44.632Z,24.91
2023-05-25T11:45:44.679Z,26.80
2023-05-25T11:47:44.682Z,24.74
2023-05-25T11:49:44.641Z,24.72
2023-05-25T11:51:44.886Z,26.69
2023-05-25T11:53:44.643Z,24.71
2023-05-25T11:55:44.617Z,26.75
2023-05-25T11:57:44.661Z,24.72
2023-05-25T11:59:44.593Z,26.79
2023-05-25T12:01:44.646Z,24.80
2023-05-25T12:03:44.721Z,24.76
2023-05-25T12:05:44.843Z,24.81
2023-05-25T12:07:44.612Z,24.73
2023-05-25T12:09:44.748Z,26.25
2023-05-25T12:11:44.719Z,26.45
2023-05-25T12:13:44.627Z,26.53
2023-05-25T12:15:44.959Z,26.65
2023-05-25T12:17:44.745Z,26.52
2023-05-25T12:19:44.659Z,24.78
2023-05-25T12:21:44.710Z,26.39
2023-05-25T12:23:44.626Z,24.95
2023-05-25T12:25:50.804Z,26.62
2023-05-25T12:27:44.721Z,26.60
2023-05-25T12:29:44.841Z,24.56
2023-05-25T12:31:44.727Z,26.56
2023-05-25T12:33:44.686Z,26.53
2023-05-25T12:35:45.086Z,24.94
2023-05-25T12:37:44.588Z,24.85
2023-05-25T12:39:44.625Z,24.80
2023-05-25T12:41:44.696Z,24.79
2023-05-25T12:43:44.648Z,25.91
2023-05-25T12:45:44.738Z,26.79
2023-05-25T12:47:44.835Z,24.90
2023-05-25T12:49:44.716Z,26.49
2023-05-25T12:51:44.696Z,26.37
2023-05-25T12:53:44.746Z,26.37
2023-05-25T12:55:44.752Z,26.22
2023-05-25T12:57:44.732Z,26.65
2023-05-25T12:59:44.860Z,24.66
2023-05-25T13:01:44.599Z,26.62
2023-05-25T13:03:44.745Z,24.80
2023-05-25T13:05:44.818Z,24.96
2023-05-25T13:07:44.733Z,26.66
2023-05-25T13:09:44.797Z,26.71
2023-05-25T13:11:44.777Z,24.66
2023-05-25T13:13:44.738Z,24.74
2023-05-25T13:15:44.673Z,26.65
2023-05-25T13:17:44.823Z,26.61
2023-05-25T13:19:44.845Z,26.68
2023-05-25T13:21:44.760Z,26.58
2023-05-25T13:23:44.777Z,26.52
2023-05-25T13:25:44.713Z,24.71
2023-05-25T13:27:44.754Z,24.69
2023-05-25T13:29:44.783Z,24.98
2023-05-25T13:31:44.726Z,26.67
2023-05-25T13:33:44.707Z,26.66
2023-05-25T13:35:44.728Z,24.66
2023-05-25T13:37:44.729Z,26.46
2023-05-25T13:39:44.719Z,26.42
2023-05-25T13:41:44.759Z,26.52
2023-05-25T13:43:44.640Z,26.61
2023-05-25T13:45:45.066Z,24.62
2023-05-25T13:47:44.926Z,24.66
2023-05-25T13:49:44.682Z,24.68
2023-05-25T13:51:44.693Z,24.66
2023-05-25T13:53:44.841Z,24.44
2023-05-25T13:55:44.799Z,26.59
2023-05-25T13:57:44.773Z,24.67
2023-05-25T13:59:44.711Z,26.61
2023-05-25T14:01:44.923Z,24.62
2023-05-25T14:03:45.030Z,26.54
2023-05-25T14:05:45.025Z,24.66
2023-05-25T14:07:44.843Z,24.86
2023-05-25T14:09:44.856Z,26.51
2023-05-25T14:11:44.792Z,24.62
2023-05-25T14:13:44.762Z,24.90
2023-05-25T14:15:45.071Z,26.55
2023-05-25T14:17:44.827Z,24.71
2023-05-25T14:19:44.815Z,26.56
2023-05-25T14:21:44.820Z,24.99
2023-05-25T14:23:44.842Z,25.12
2023-05-25T14:25:44.961Z,25.12
2023-05-25T14:27:44.747Z,25.09
2023-05-25T14:29:44.927Z,25.09
2023-05-25T14:31:44.770Z,26.79
2023-05-25T14:33:44.755Z,24.68
2023-05-25T14:35:44.988Z,26.69
2023-05-25T14:37:44.832Z,24.69
2023-05-25T14:39:44.703Z,25.05
2023-05-25T14:41:44.811Z,24.93
2023-05-25T14:43:44.809Z,24.95
2023-05-25T14:45:45.110Z,24.94
2023-05-25T14:47:44.889Z,23.35
2023-05-25T14:49:44.735Z,26.53
2023-05-25T14:51:44.900Z,26.50
2023-05-25T14:53:44.786Z,26.55
2023-05-25T14:55:44.926Z,26.48
2023-05-25T14:57:44.752Z,24.74
2023-05-25T14:59:44.748Z,24.62
2023-05-25T15:01:44.937Z,24.63
2023-05-25T15:03:44.957Z,26.53
2023-05-25T15:05:44.957Z,26.49
2023-05-25T15:07:44.862Z,26.50
2023-05-25T15:09:44.835Z,24.43
2023-05-25T15:11:44.742Z,26.41
2023-05-25T15:13:44.887Z,24.87
2023-05-25T15:15:44.959Z,24.95
2023-05-25T15:17:44.788Z,24.87
2023-05-25T15:19:44.879Z,24.80
2023-05-25T15:21:44.858Z,26.57
2023-05-25T15:23:44.827Z,24.72
2023-05-25T15:25:44.793Z,25.88
2023-05-25T15:27:44.848Z,26.65
2023-05-25T15:29:44.866Z,25.52
2023-05-25T15:31:44.850Z,26.52
2023-05-25T15:33:56.314Z,26.61
2023-05-25T15:35:45.100Z,25.90
2023-05-25T15:37:44.764Z,24.70
2023-05-25T15:39:44.891Z,24.62
2023-05-25T15:41:44.927Z,26.53
2023-05-25T15:43:44.821Z,24.72
2023-05-25T15:45:45.197Z,24.71
2023-05-25T15:47:44.927Z,24.66
2023-05-25T15:49:44.861Z,24.81
2023-05-25T15:51:44.923Z,24.79
2023-05-25T15:53:44.794Z,24.67
2023-05-25T15:55:45.027Z,26.49
2023-05-25T15:57:44.881Z,26.22
2023-05-25T15:59:44.857Z,26.61
2023-05-25T16:01:45.014Z,24.75
2023-05-25T16:03:45.119Z,26.57
2023-05-25T16:05:45.131Z,24.66
2023-05-25T16:07:44.914Z,24.37
2023-05-25T16:09:44.807Z,24.25
2023-05-25T16:11:44.902Z,24.00
2023-05-25T16:13:44.948Z,23.75
2023-05-25T16:15:45.130Z,23.81
2023-05-25T16:17:44.844Z,25.11
2023-05-25T16:19:44.878Z,24.74
2023-05-25T16:21:44.962Z,24.95
2023-05-25T16:23:44.959Z,25.07
2023-05-25T16:25:45.108Z,25.09
2023-05-25T16:27:45.017Z,25.05
2023-05-25T16:29:44.935Z,25.13
2023-05-25T16:31:44.943Z,26.31
2023-05-25T16:33:44.884Z,25.23
2023-05-25T16:35:45.282Z,24.76
2023-05-25T16:37:44.965Z,24.68
2023-05-25T16:39:44.942Z,24.81
2023-05-25T16:41:44.983Z,24.67
2023-05-25T16:43:44.959Z,24.65
2023-05-25T16:45:45.078Z,24.10
2023-05-25T16:47:44.938Z,23.79
2023-05-25T16:49:44.979Z,23.24
2023-05-25T16:51:45.005Z,23.13
2023-05-25T16:53:44.867Z,23.13
2023-05-25T16:55:45.131Z,23.17
2023-05-25T16:57:45.000Z,23.82
2023-05-25T16:59:45.000Z,24.32
2023-05-25T17:01:44.897Z,24.72
2023-05-25T17:03:45.022Z,24.95
2023-05-25T17:05:45.184Z,25.18
2023-05-25T17:07:45.007Z,25.24
2023-05-25T17:09:44.939Z,25.28
2023-05-25T17:11:44.987Z,25.29
2023-05-25T17:13:44.865Z,24.52
2023-05-25T17:15:45.278Z,24.36
2023-05-25T17:17:45.064Z,24.74
2023-05-25T17:19:44.996Z,24.92
2023-05-25T17:21:44.961Z,25.07
2023-05-25T17:23:44.958Z,24.52
2023-05-25T17:25:45.144Z,23.72
2023-05-25T17:27:45.029Z,23.42
2023-05-25T17:29:44.947Z,23.25
2023-05-25T17:31:47.699Z,23.22
2023-05-25T17:33:45.001Z,22.98
2023-05-25T17:35:45.166Z,23.35
2023-05-25T17:37:45.046Z,23.25
2023-05-25T17:39:45.018Z,23.25
2023-05-25T17:41:44.931Z,23.17
2023-05-25T17:43:44.952Z,23.26
2023-05-25T17:45:45.221Z,23.30
2023-05-25T17:47:45.092Z,23.25
2023-05-25T17:49:45.004Z,23.44
2023-05-25T17:51:45.023Z,23.42
2023-05-25T17:53:45.064Z,23.53
2023-05-25T17:55:45.227Z,23.65
2023-05-25T17:57:44.983Z,23.65
2023-05-25T17:59:45.848Z,23.72
2023-05-25T18:01:45.005Z,23.81
2023-05-25T18:03:45.063Z,23.96
2023-05-25T18:05:45.168Z,23.98
2023-05-25T18:07:45.024Z,23.94
2023-05-25T18:09:44.980Z,23.96
2023-05-25T18:11:45.093Z,23.98
2023-05-25T18:13:44.963Z,23.97
2023-05-25T18:15:45.249Z,24.09
2023-05-25T18:17:45.091Z,24.10
2023-05-25T18:19:44.962Z,24.07
2023-05-25T18:21:45.093Z,24.06
2023-05-25T18:23:45.010Z,24.08
2023-05-25T18:25:45.252Z,24.12
2023-05-25T18:27:45.065Z,24.05
2023-05-25T18:29:45.085Z,24.06
2023-05-25T18:31:45.164Z,24.06
2023-05-25T18:33:45.074Z,24.10
2023-05-25T18:35:45.193Z,24.02
2023-05-25T18:37:45.046Z,24.11
2023-05-25T18:39:45.174Z,23.98
2023-05-25T18:41:44.937Z,24.10
2023-05-25T18:43:45.749Z,24.10
2023-05-25T18:45:45.352Z,24.01
2023-05-25T18:47:45.120Z,24.09
2023-05-25T18:49:45.128Z,24.07
2023-05-25T18:51:45.130Z,23.96
2023-05-25T18:53:45.061Z,23.95
2023-05-25T18:55:45.386Z,23.93
2023-05-25T18:57:45.110Z,23.93
2023-05-25T18:59:45.030Z,23.88
2023-05-25T19:01:45.082Z,23.81
2023-05-25T19:03:45.175Z,23.61
2023-05-25T19:05:45.275Z,23.88
2023-05-25T19:07:58.236Z,23.89
2023-05-25T19:09:45.137Z,23.83
2023-05-25T19:11:45.108Z,23.92
2023-05-25T19:13:45.080Z,23.81
2023-05-25T19:15:45.548Z,23.88
2023-05-25T19:17:45.098Z,23.81
2023-05-25T19:19:45.081Z,23.77
2023-05-25T19:21:45.122Z,23.77
2023-05-25T19:23:45.192Z,23.78
2023-05-25T19:25:45.310Z,23.80
2023-05-25T19:27:45.012Z,23.73
2023-05-25T19:29:45.157Z,23.78
2023-05-25T19:31:45.176Z,23.80
2023-05-25T19:33:45.133Z,23.81
2023-05-25T19:35:45.348Z,23.80
2023-05-25T19:37:45.152Z,23.81
2023-05-25T19:39:45.303Z,23.79
2023-05-25T19:41:45.147Z,23.81
2023-05-25T19:43:45.343Z,23.78
2023-05-25T19:45:45.421Z,24.55
2023-05-25T19:47:45.153Z,26.65
2023-05-25T19:49:45.088Z,26.78
2023-05-25T19:51:45.287Z,26.82
2023-05-25T19:53:45.382Z,26.93
2023-05-25T19:55:45.272Z,26.83
2023-05-25T19:57:45.164Z,26.93
2023-05-25T19:59:45.274Z,26.92
2023-05-25T20:01:45.142Z,26.93
2023-05-25T20:03:46.728Z,26.93
2023-05-25T20:05:45.388Z,26.91
2023-05-25T20:07:45.161Z,26.93
2023-05-25T20:09:45.112Z,26.93
2023-05-25T20:11:45.197Z,25.23
2023-05-25T20:13:45.062Z,25.26
2023-05-25T20:15:45.504Z,25.22
2023-05-25T20:17:45.473Z,25.23
2023-05-25T20:19:45.074Z,25.25
2023-05-25T20:21:45.184Z,25.25
2023-05-25T20:23:45.232Z,25.23
2023-05-25T20:25:45.341Z,25.21
2023-05-25T20:27:45.223Z,25.21
2023-05-25T20:29:45.162Z,25.19
2023-05-25T20:31:45.254Z,25.23
2023-05-25T20:33:45.288Z,25.09
2023-05-25T20:35:45.514Z,25.21
2023-05-25T20:37:46.391Z,25.23
2023-05-25T20:39:45.196Z,25.22
2023-05-25T20:41:45.881Z,25.22
2023-05-25T20:43:45.097Z,25.21
2023-05-25T20:45:45.397Z,25.15
2023-05-25T20:47:45.148Z,25.24
2023-05-25T20:49:45.133Z,25.23
2023-05-25T20:51:45.176Z,25.23
2023-05-25T20:53:45.197Z,25.23
2023-05-25T20:55:45.411Z,25.21
2023-05-25T20:57:45.212Z,25.23
2023-05-25T20:59:45.217Z,25.23
2023-05-25T21:01:45.227Z,25.22
2023-05-25T21:03:45.318Z,25.23
2023-05-25T21:05:45.517Z,25.24
2023-05-25T21:07:45.260Z,25.28
2023-05-25T21:09:45.256Z,25.23
2023-05-25T21:11:45.121Z,25.23
2023-05-25T21:13:45.122Z,25.23
2023-05-25T21:15:45.550Z,25.23
2023-05-25T21:17:45.302Z,25.21
2023-05-25T21:19:45.256Z,25.23
2023-05-25T21:21:45.245Z,25.21
2023-05-25T21:23:45.255Z,25.19
2023-05-25T21:25:45.466Z,25.28
2023-05-25T21:27:45.124Z,25.21
2023-05-25T21:29:45.245Z,25.18
2023-05-25T21:31:45.267Z,25.21
2023-05-25T21:33:45.239Z,25.21
2023-05-25T21:35:45.514Z,25.19
2023-05-25T21:37:45.252Z,25.23
2023-05-25T21:39:45.258Z,25.23
2023-05-25T21:41:45.287Z,25.23
2023-05-25T21:43:45.156Z,25.29
2023-05-25T21:45:45.471Z,25.29
2023-05-25T21:47:45.313Z,25.23
2023-05-25T21:49:45.292Z,25.25
2023-05-25T21:51:45.273Z,25.23
2023-05-25T21:53:45.291Z,25.25
2023-05-25T21:55:45.407Z,25.32
2023-05-25T21:57:45.273Z,25.29
2023-05-25T21:59:45.346Z,25.28
2023-05-25T22:01:45.327Z,25.24
2023-05-25T22:03:45.387Z,25.26
2023-05-25T22:05:45.551Z,25.33
2023-05-25T22:07:45.267Z,25.33
2023-05-25T22:09:45.329Z,25.24
2023-05-25T22:11:45.334Z,25.24
2023-05-25T22:13:45.321Z,25.26
2023-05-25T22:15:45.428Z,25.35
2023-05-25T22:17:45.288Z,25.35
2023-05-25T22:19:52.098Z,25.24
2023-05-25T22:21:45.287Z,25.31
2023-05-25T22:23:45.275Z,25.31
2023-05-25T22:25:45.543Z,25.29
2023-05-25T22:27:45.269Z,25.23
2023-05-25T22:29:45.267Z,25.25
2023-05-25T22:31:45.219Z,25.37
2023-05-25T22:33:45.325Z,25.23
2023-05-25T22:35:45.465Z,25.25
2023-05-25T22:37:45.291Z,25.23
2023-05-25T22:39:45.285Z,25.27
2023-05-25T22:41:45.313Z,25.28
2023-05-25T22:43:45.334Z,25.25
2023-05-25T22:45:45.560Z,25.26
2023-05-25T22:47:45.417Z,25.23
2023-05-25T22:49:45.350Z,25.37
2023-05-25T22:51:45.339Z,25.28
2023-05-25T22:53:45.331Z,25.32
2023-05-25T22:55:47.265Z,25.28
2023-05-25T22:57:45.260Z,25.24
2023-05-25T22:59:45.233Z,25.32
2023-05-25T23:01:45.328Z,25.23
2023-05-25T23:03:45.492Z,25.24
2023-05-25T23:05:45.541Z,25.23
2023-05-25T23:07:45.232Z,25.28
2023-05-25T23:09:45.336Z,25.36
2023-05-25T23:11:45.340Z,25.23
2023-05-25T23:13:45.368Z,25.26
2023-05-25T23:15:45.562Z,25.25
2023-05-25T23:17:45.444Z,25.31
2023-05-25T23:19:45.385Z,25.25
2023-05-25T23:21:45.383Z,25.27
2023-05-25T23:23:45.383Z,25.26
2023-05-25T23:25:45.423Z,25.31
2023-05-25T23:27:45.370Z,25.35
2023-05-25T23:29:45.429Z,25.31
2023-05-25T23:31:45.435Z,25.23
2023-05-25T23:33:45.522Z,25.25
2023-05-25T23:35:45.478Z,25.29
2023-05-25T23:37:45.175Z,25.28
2023-05-25T23:39:45.414Z,25.23
2023-05-25T23:41:45.373Z,25.25
2023-05-25T23:43:45.502Z,25.26
2023-05-25T23:45:45.685Z,25.27
2023-05-25T23:47:45.408Z,25.33
2023-05-25T23:49:45.404Z,25.36
2023-05-25T23:51:45.255Z,25.23
2023-05-25T23:53:45.366Z,25.25
2023-05-25T23:55:45.391Z,25.27
2023-05-25T23:57:45.455Z,25.29
2023-05-25T23:59:45.355Z,25.25
